createdAt,value
2022-11-03T00:00:15.484Z,99447.65
2022-11-03T00:05:35.840Z,99446.65
2022-11-03T00:10:37.722Z,99450.63
2022-11-03T00:15:48.406Z,99456.83
2022-11-03T00:21:02.141Z,99461.11
2022-11-03T00:26:28.307Z,99459.25
2022-11-03T00:31:33.465Z,99456.45
2022-11-03T00:36:37.736Z,99451.70
2022-11-03T00:41:40.082Z,99455.70
2022-11-03T00:46:41.892Z,99460.39
2022-11-03T00:51:43.631Z,99456.36
2022-11-03T00:56:45.615Z,99454.75
2022-11-03T01:01:48.133Z,99458.43
2022-11-03T01:06:54.442Z,99461.98
2022-11-03T01:12:02.827Z,99467.35
2022-11-03T01:17:07.046Z,99474.08
2022-11-03T01:22:10.890Z,99471.10
2022-11-03T01:27:16.233Z,99466.73
2022-11-03T01:32:17.972Z,99466.65
2022-11-03T01:37:19.881Z,99460.73
2022-11-03T01:42:21.706Z,99468.17
2022-11-03T01:47:29.898Z,99468.09
2022-11-03T01:52:37.699Z,99463.70
2022-11-03T01:57:45.647Z,99464.44
2022-11-03T02:02:48.017Z,99461.23
2022-11-03T02:08:15.283Z,99449.75
2022-11-03T02:13:23.022Z,99451.17
2022-11-03T02:18:28.715Z,99450.30
2022-11-03T02:23:42.175Z,99448.91
2022-11-03T02:28:44.435Z,99446.45
2022-11-03T02:34:11.665Z,99443.28
2022-11-03T02:39:22.131Z,99446.02
2022-11-03T02:44:26.197Z,99452.66
2022-11-03T02:49:28.359Z,99451.76
2022-11-03T02:54:43.214Z,99446.49
2022-11-03T02:59:58.170Z,99444.34
2022-11-03T03:05:03.890Z,99445.40
2022-11-03T03:10:14.702Z,99440.95
2022-11-03T03:15:18.599Z,99441.46
2022-11-03T03:20:27.818Z,99449.25
2022-11-03T03:25:56.061Z,99453.98
2022-11-03T03:31:00.894Z,99453.92
2022-11-03T03:36:07.991Z,99449.16
2022-11-03T03:41:22.043Z,99448.27
2022-11-03T03:46:29.260Z,99448.58
2022-11-03T03:51:32.159Z,99449.54
2022-11-03T03:56:43.748Z,99446.02
2022-11-03T04:01:45.715Z,99443.33
2022-11-03T04:06:47.772Z,99437.54
2022-11-03T04:12:08.247Z,99437.27
2022-11-03T04:17:39.377Z,99436.69
2022-11-03T04:22:41.233Z,99438.33
2022-11-03T04:27:44.655Z,99435.52
2022-11-03T04:32:48.822Z,99430.91
2022-11-03T04:38:13.818Z,99428.55
2022-11-03T04:43:19.023Z,99425.95
2022-11-03T04:48:25.509Z,99422.48
2022-11-03T04:53:31.557Z,99424.96
2022-11-03T04:58:35.753Z,99420.41
2022-11-03T05:03:39.026Z,99408.35
2022-11-03T05:08:42.832Z,99401.34
2022-11-03T05:13:44.704Z,99402.60
2022-11-03T05:18:50.100Z,99398.72
2022-11-03T05:23:56.285Z,99395.23
2022-11-03T05:29:04.466Z,99396.52
2022-11-03T05:34:26.939Z,99398.80
2022-11-03T05:39:36.707Z,99405.48
2022-11-03T05:44:39.885Z,99400.89
2022-11-03T05:49:41.773Z,99395.91
2022-11-03T05:54:43.651Z,99395.92
2022-11-03T05:59:48.409Z,99397.29
2022-11-03T06:04:50.273Z,99397.92
2022-11-03T06:09:53.700Z,99393.25
2022-11-03T06:14:55.563Z,99396.27
2022-11-03T06:20:00.297Z,99394.43
2022-11-03T06:25:27.269Z,99392.46
2022-11-03T06:30:34.642Z,99387.23
2022-11-03T06:35:36.560Z,99388.77
2022-11-03T06:40:39.150Z,99388.58
2022-11-03T06:45:50.029Z,99386.75
2022-11-03T06:50:52.837Z,99386.35
2022-11-03T06:55:55.326Z,99390.83
2022-11-03T07:01:03.764Z,99382.92
2022-11-03T07:06:18.441Z,99381.14
2022-11-03T07:11:26.151Z,99383.04
2022-11-03T07:16:37.590Z,99371.41
2022-11-03T07:21:56.153Z,99364.83
2022-11-03T07:27:01.177Z,99357.15
2022-11-03T07:32:13.289Z,99349.73
2022-11-03T07:37:22.945Z,99345.52
2022-11-03T07:42:27.393Z,99342.48
2022-11-03T07:47:34.647Z,99341.58
2022-11-03T07:52:36.570Z,99339.42
2022-11-03T07:57:39.574Z,99330.74
2022-11-03T08:03:01.030Z,99330.46
2022-11-03T08:08:02.761Z,99326.91
2022-11-03T08:13:04.815Z,99315.60
2022-11-03T08:18:06.816Z,99310.55
2022-11-03T08:28:30.878Z,99293.94
2022-11-03T08:33:34.846Z,99286.41
2022-11-03T08:38:37.494Z,99284.07
2022-11-03T08:43:39.373Z,99279.85
2022-11-03T08:48:41.604Z,99277.08
2022-11-03T08:53:43.617Z,99273.08
2022-11-03T08:58:45.501Z,99264.90
2022-11-03T09:03:47.334Z,99260.95
2022-11-03T09:14:11.133Z,99251.86
2022-11-03T09:19:12.901Z,99249.60
2022-11-03T09:24:14.759Z,99251.58
2022-11-03T09:29:16.577Z,99249.73
2022-11-03T09:34:18.367Z,99240.29
2022-11-03T09:39:20.153Z,99232.70
2022-11-03T09:44:21.959Z,99225.45
2022-11-03T09:49:23.811Z,99213.15
2022-11-03T09:54:28.211Z,99201.52
2022-11-03T09:59:30.440Z,99188.94
2022-11-03T10:04:32.462Z,99178.20
2022-11-03T10:09:34.637Z,99170.02
2022-11-03T10:14:36.483Z,99160.86
2022-11-03T10:19:38.312Z,99149.08
2022-11-03T10:24:40.200Z,99139.98
2022-11-03T10:29:43.777Z,99135.61
2022-11-03T10:34:49.199Z,99127.14
2022-11-03T10:39:53.128Z,99119.41
2022-11-03T10:45:10.359Z,99115.41
2022-11-03T10:50:22.507Z,99109.03
2022-11-03T10:55:26.260Z,99105.69
2022-11-03T11:00:28.186Z,99095.65
2022-11-03T11:05:30.073Z,99087.87
2022-11-03T11:10:32.115Z,99076.48
2022-11-03T11:15:44.399Z,99072.38
2022-11-03T11:20:46.280Z,99066.10
2022-11-03T11:26:09.904Z,99053.13
2022-11-03T11:31:27.117Z,99045.48
2022-11-03T11:36:29.060Z,99040.83
2022-11-03T11:42:08.637Z,99021.83
2022-11-03T11:47:24.555Z,99014.94
2022-11-03T11:52:27.866Z,99003.70
2022-11-03T11:57:33.941Z,98983.92
2022-11-03T12:02:36.329Z,98977.01
2022-11-03T12:07:38.071Z,98974.29
2022-11-03T12:12:39.983Z,98963.59
2022-11-03T12:17:41.756Z,98951.55
2022-11-03T12:22:43.759Z,98941.97
2022-11-03T12:27:45.854Z,98932.30
2022-11-03T12:32:48.207Z,98919.13
2022-11-03T12:37:50.085Z,98912.05
2022-11-03T12:42:51.962Z,98901.73
2022-11-03T12:47:53.843Z,98887.84
2022-11-03T12:52:55.719Z,98886.35
2022-11-03T12:57:57.506Z,98880.64
2022-11-03T13:02:59.304Z,98875.34
2022-11-03T13:08:01.143Z,98870.98
2022-11-03T13:13:02.868Z,98864.29
2022-11-03T13:18:15.294Z,98849.05
2022-11-03T13:23:20.276Z,98839.21
2022-11-03T13:28:25.036Z,98836.36
2022-11-03T13:33:26.811Z,98830.12
2022-11-03T13:38:28.696Z,98829.61
2022-11-03T13:43:30.574Z,98825.69
2022-11-03T14:09:42.578Z,98802.30
2022-11-03T14:14:44.504Z,98801.55
2022-11-03T14:19:52.034Z,98794.04
2022-11-03T14:24:54.702Z,98787.85
2022-11-03T14:29:56.472Z,98788.43
2022-11-03T14:34:58.454Z,98787.85
2022-11-03T14:40:00.456Z,98782.73
2022-11-03T14:45:02.289Z,98777.99
2022-11-03T14:50:04.806Z,98769.98
2022-11-03T14:55:07.304Z,98766.08
2022-11-03T15:00:11.394Z,98762.38
2022-11-03T15:05:33.118Z,98756.19
2022-11-03T15:10:34.946Z,98747.80
2022-11-03T15:15:37.339Z,98737.80
2022-11-03T15:20:39.201Z,98738.32
2022-11-03T15:25:41.201Z,98728.43
2022-11-03T15:30:42.996Z,98719.46
2022-11-03T15:35:45.097Z,98714.58
2022-11-03T15:40:47.133Z,98709.85
2022-11-03T15:45:49.013Z,98701.03
2022-11-03T15:50:50.890Z,98697.83
2022-11-03T15:55:52.669Z,98692.30
2022-11-03T16:00:54.758Z,98687.79
2022-11-03T16:05:56.674Z,98686.45
2022-11-03T16:10:58.609Z,98687.77
2022-11-03T16:16:00.584Z,98685.50
2022-11-03T16:21:02.377Z,98681.23
2022-11-03T16:26:05.775Z,98673.73
2022-11-03T16:31:07.650Z,98662.98
2022-11-03T16:36:09.528Z,98650.96
2022-11-03T16:41:11.811Z,98644.85
2022-11-03T16:46:13.738Z,98638.83
2022-11-03T16:51:15.570Z,98632.89
2022-11-03T16:56:17.340Z,98635.73
2022-11-03T17:01:19.398Z,98627.86
2022-11-03T17:06:22.221Z,98619.30
2022-11-03T17:11:36.452Z,98619.98
2022-11-03T17:16:38.700Z,98618.14
2022-11-03T17:21:40.761Z,98615.67
2022-11-03T17:26:51.478Z,98620.91
2022-11-03T17:31:54.234Z,98623.05
2022-11-03T17:36:56.836Z,98622.70
2022-11-03T17:42:18.786Z,98616.72
2022-11-03T17:47:21.291Z,98605.62
2022-11-03T17:52:28.677Z,98595.02
2022-11-03T17:57:31.009Z,98571.75
2022-11-03T18:02:35.673Z,98564.77
2022-11-03T18:07:38.613Z,98555.13
2022-11-03T18:13:03.532Z,98552.18
2022-11-03T18:18:29.386Z,98549.48
2022-11-03T18:23:33.889Z,98545.39
2022-11-03T18:28:35.682Z,98540.45
2022-11-03T18:33:37.505Z,98530.48
2022-11-03T18:38:41.441Z,98516.55
2022-11-03T18:43:43.260Z,98510.98
2022-11-03T18:48:45.141Z,98504.54
2022-11-03T18:53:47.016Z,98494.88
2022-11-03T18:58:52.686Z,98484.86
2022-11-03T19:03:56.507Z,98483.29
2022-11-03T19:08:59.858Z,98474.73
2022-11-03T19:14:01.807Z,98464.45
2022-11-03T19:19:03.878Z,98456.08
2022-11-03T19:24:05.958Z,98449.12
2022-11-03T19:29:13.311Z,98446.23
2022-11-03T19:34:19.637Z,98439.86
2022-11-03T19:39:32.235Z,98430.09
2022-11-03T19:49:36.952Z,98414.25
2022-11-03T19:54:40.676Z,98403.27
2022-11-03T19:59:43.666Z,98403.02
2022-11-03T20:04:47.501Z,98395.94
2022-11-03T20:09:49.376Z,98389.48
2022-11-03T20:14:51.255Z,98389.39
2022-11-03T20:19:53.435Z,98390.43
2022-11-03T20:25:03.316Z,98382.02
2022-11-03T20:30:05.998Z,98375.69
2022-11-03T20:35:13.654Z,98371.45
2022-11-03T20:40:19.521Z,98365.70
2022-11-03T20:45:23.086Z,98359.88
2022-11-03T20:50:25.610Z,98356.21
2022-11-03T20:55:27.760Z,98353.22
2022-11-03T21:00:31.757Z,98350.43
2022-11-03T21:05:33.684Z,98352.19
2022-11-03T21:10:35.867Z,98351.26
2022-11-03T21:16:22.987Z,98351.17
2022-11-03T21:21:21.484Z,98342.45
2022-11-03T21:26:23.383Z,98333.70
2022-11-03T21:31:25.259Z,98326.75
2022-11-03T21:36:27.141Z,98319.21
2022-11-03T21:41:47.583Z,98314.59
2022-11-03T21:46:49.420Z,98303.20
2022-11-03T21:51:51.301Z,98293.27
2022-11-03T21:56:53.129Z,98278.17
2022-11-03T22:01:55.426Z,98273.64
2022-11-03T22:06:58.954Z,98272.82
2022-11-03T22:12:05.781Z,98264.88
2022-11-03T22:17:07.570Z,98256.45
2022-11-03T22:22:43.627Z,98244.48
2022-11-03T22:27:45.817Z,98232.00
2022-11-03T22:32:53.461Z,98227.80
2022-11-03T22:38:46.605Z,98225.19
2022-11-03T22:44:06.936Z,98228.13
2022-11-03T22:49:08.721Z,98220.63
2022-11-03T22:54:10.465Z,98210.83
2022-11-03T22:59:13.061Z,98201.52
2022-11-03T23:04:14.940Z,98191.16
2022-11-03T23:09:16.693Z,98181.33
2022-11-03T23:14:18.689Z,98174.39
2022-11-03T23:19:39.512Z,98164.98
2022-11-03T23:25:00.272Z,98155.58
2022-11-03T23:30:02.210Z,98145.41
2022-11-03T23:35:04.815Z,98133.45
2022-11-03T23:40:07.711Z,98121.87
2022-11-03T23:45:28.837Z,98111.18
2022-11-03T23:50:30.555Z,98101.31
2022-11-03T23:55:53.889Z,98097.88
